Irvine, Florida
Current Conditions -  °F | °C
As of 6:50 PM on Thursday 27 Nov 2014 (Local Time) from KOCF Reporting Station
Clear Clear  
Wind Chill: 46°   Ceiling: Unl
Heat Index: 48°   Visibility: 10mi
Dew Point: 34°   Wind: 5mph
Humidity: 57%   Direction: 340°NNW
Pressure: 30.26"   Gusts: NA
Location:  29.3919°N, 82.2811°W
Report Text: KOCF 272350Z 34004KT 10SM CLR 09/01 A3026
Loading
Personal Weather Stations






























Interactive Weather Map New forecast layout! Learn more

10-Day Weather Forecast

Advertisements
Track Severe Weather on mobile